createdAt,value
2022-11-28T00:00:39.950Z,74.43
2022-11-28T00:04:43.461Z,74.27
2022-11-28T00:08:47.508Z,74.15
2022-11-28T00:12:52.642Z,73.99
2022-11-28T00:16:56.060Z,73.82
2022-11-28T00:21:02.656Z,74.02
2022-11-28T00:25:06.263Z,74.26
2022-11-28T00:29:12.174Z,74.07
2022-11-28T00:33:15.281Z,74.45
2022-11-28T00:37:18.791Z,74.97
2022-11-28T00:41:24.287Z,74.91
2022-11-28T00:45:29.422Z,75.28
2022-11-28T00:49:32.538Z,75.30
2022-11-28T00:53:36.383Z,74.75
2022-11-28T00:57:40.163Z,75.06
2022-11-28T01:01:45.118Z,75.44
2022-11-28T01:05:48.863Z,74.85
2022-11-28T01:09:52.396Z,74.93
2022-11-28T01:13:57.050Z,74.86
2022-11-28T01:18:02.756Z,75.10
2022-11-28T01:22:06.970Z,75.46
2022-11-28T01:26:11.802Z,75.81
2022-11-28T01:30:15.873Z,76.04
2022-11-28T01:34:20.288Z,76.18
2022-11-28T01:38:24.317Z,75.86
2022-11-28T01:42:27.482Z,75.73
2022-11-28T01:46:32.173Z,75.86
2022-11-28T01:50:40.229Z,75.31
2022-11-28T01:54:47.871Z,75.75
2022-11-28T01:58:56.663Z,75.36
2022-11-28T02:03:04.826Z,74.62
2022-11-28T02:07:10.239Z,74.47
2022-11-28T02:11:38.176Z,74.32
2022-11-28T02:16:01.111Z,74.42
2022-11-28T02:20:51.528Z,74.40
2022-11-28T02:25:15.890Z,73.87
2022-11-28T02:29:52.418Z,74.05
2022-11-28T02:34:01.578Z,74.16
2022-11-28T02:42:49.383Z,74.30
2022-11-28T02:46:58.341Z,73.92
2022-11-28T02:51:11.081Z,73.85
2022-11-28T02:55:15.580Z,74.36
2022-11-28T02:59:46.502Z,74.22
2022-11-28T03:04:03.048Z,73.82
2022-11-28T03:08:24.167Z,73.78
2022-11-28T03:12:36.608Z,73.70
2022-11-28T03:16:49.822Z,73.42
2022-11-28T03:20:57.675Z,73.88
2022-11-28T03:25:12.405Z,73.84
2022-11-28T03:29:23.365Z,74.33
2022-11-28T03:33:29.814Z,73.94
2022-11-28T03:37:36.894Z,73.94
2022-11-28T03:41:46.957Z,73.62
2022-11-28T03:45:56.867Z,73.83
2022-11-28T03:50:06.698Z,73.70
2022-11-28T03:54:15.782Z,73.52
2022-11-28T03:58:27.001Z,73.99
2022-11-28T04:02:35.466Z,73.56
2022-11-28T04:06:52.529Z,74.15
2022-11-28T04:11:04.017Z,74.13
2022-11-28T04:15:15.531Z,73.72
2022-11-28T04:19:24.974Z,73.64
2022-11-28T04:23:29.347Z,74.28
2022-11-28T04:27:39.317Z,74.18
2022-11-28T04:31:46.681Z,73.30
2022-11-28T04:35:54.103Z,73.16
2022-11-28T04:39:58.624Z,73.97
2022-11-28T04:44:06.340Z,73.47
2022-11-28T04:48:11.721Z,73.74
2022-11-28T04:52:21.776Z,73.71
2022-11-28T04:56:31.614Z,73.64
2022-11-28T05:00:37.117Z,73.48
2022-11-28T05:04:44.381Z,73.14
2022-11-28T05:08:48.217Z,73.05
2022-11-28T05:12:51.670Z,72.90
2022-11-28T05:16:54.899Z,73.39
2022-11-28T05:21:02.083Z,72.86
2022-11-28T05:25:06.393Z,73.12
2022-11-28T05:29:10.142Z,73.09
2022-11-28T05:33:14.051Z,72.84
2022-11-28T05:37:18.453Z,73.22
2022-11-28T05:41:22.913Z,72.82
2022-11-28T05:45:26.459Z,72.94
2022-11-28T05:49:29.590Z,73.06
2022-11-28T05:53:36.522Z,72.80
2022-11-28T05:57:40.123Z,73.15
2022-11-28T06:01:43.255Z,73.67
2022-11-28T06:05:47.026Z,73.00
2022-11-28T06:09:52.054Z,72.86
2022-11-28T06:13:55.408Z,73.25
2022-11-28T06:17:58.975Z,73.24
2022-11-28T06:22:02.733Z,73.28
2022-11-28T06:26:08.969Z,73.58
2022-11-28T06:30:13.133Z,73.41
2022-11-28T06:34:16.576Z,73.47
2022-11-28T06:38:20.460Z,73.61
2022-11-28T06:42:25.147Z,73.62
2022-11-28T06:46:28.805Z,73.90
2022-11-28T06:50:34.333Z,73.70
2022-11-28T06:54:38.181Z,73.32
2022-11-28T06:58:43.082Z,73.77
2022-11-28T07:02:46.665Z,73.31
2022-11-28T07:06:50.237Z,73.17
2022-11-28T07:10:54.030Z,73.53
2022-11-28T07:14:59.355Z,73.70
2022-11-28T07:19:02.775Z,73.15
2022-11-28T07:23:07.189Z,73.18
2022-11-28T07:27:10.784Z,73.44
2022-11-28T07:31:19.027Z,73.16
2022-11-28T07:35:22.333Z,73.45
2022-11-28T07:39:25.939Z,72.66
2022-11-28T07:43:29.466Z,73.28
2022-11-28T07:47:35.627Z,72.93
2022-11-28T07:51:39.031Z,72.29
2022-11-28T07:55:42.652Z,71.88
2022-11-28T07:59:46.343Z,71.36
2022-11-28T08:03:51.535Z,72.17
2022-11-28T08:07:55.209Z,71.70
2022-11-28T08:12:00.422Z,72.25
2022-11-28T08:16:07.152Z,71.98
2022-11-28T08:20:17.057Z,73.10
2022-11-28T08:24:20.144Z,72.35
2022-11-28T08:28:23.662Z,72.50
2022-11-28T08:32:27.567Z,72.88
2022-11-28T08:36:32.198Z,72.60
2022-11-28T08:40:35.827Z,72.22
2022-11-28T08:44:38.885Z,71.47
2022-11-28T08:48:43.153Z,71.92
2022-11-28T08:52:48.140Z,71.92
2022-11-28T08:56:51.751Z,71.38
2022-11-28T09:00:54.929Z,71.19
2022-11-28T09:04:59.585Z,71.49
2022-11-28T09:09:05.501Z,70.87
2022-11-28T09:13:10.434Z,70.94
2022-11-28T09:17:16.028Z,70.44
2022-11-28T09:21:19.639Z,70.45
2022-11-28T09:25:24.722Z,70.93
2022-11-28T09:29:29.940Z,70.87
2022-11-28T09:33:33.287Z,70.78
2022-11-28T09:37:36.824Z,70.55
2022-11-28T09:41:59.757Z,70.95
2022-11-28T09:46:04.530Z,73.13
2022-11-28T09:50:16.015Z,70.30
2022-11-28T09:54:22.593Z,70.04
2022-11-28T09:58:35.054Z,70.28
2022-11-28T10:02:50.394Z,70.43
2022-11-28T10:07:02.958Z,69.42
2022-11-28T10:11:21.744Z,69.76
2022-11-28T10:15:47.849Z,70.44
2022-11-28T10:19:56.056Z,69.69
2022-11-28T10:24:04.251Z,69.74
2022-11-28T10:28:11.444Z,68.72
2022-11-28T10:32:18.642Z,68.86
2022-11-28T10:36:26.607Z,68.64
2022-11-28T10:40:41.884Z,70.30
2022-11-28T10:45:16.347Z,70.30
2022-11-28T10:49:30.734Z,68.97
2022-11-28T10:53:46.761Z,68.37
2022-11-28T10:58:03.294Z,66.84
2022-11-28T11:02:32.719Z,68.73
2022-11-28T11:06:47.819Z,67.27
2022-11-28T11:11:04.570Z,67.56
2022-11-28T11:15:19.005Z,68.56
2022-11-28T11:19:27.940Z,67.32
2022-11-28T11:23:37.951Z,66.53
2022-11-28T11:27:50.060Z,67.99
2022-11-28T11:31:54.660Z,66.81
2022-11-28T11:35:58.566Z,66.90
2022-11-28T11:40:06.221Z,67.06
2022-11-28T11:44:35.789Z,68.45
2022-11-28T11:48:41.173Z,66.12
2022-11-28T11:52:45.086Z,67.72
2022-11-28T11:57:05.832Z,66.16
2022-11-28T12:01:19.683Z,65.84
2022-11-28T12:05:27.825Z,66.39
2022-11-28T12:09:38.209Z,66.71
2022-11-28T12:13:42.864Z,66.32
2022-11-28T12:17:59.047Z,66.45
2022-11-28T12:22:13.433Z,67.01
2022-11-28T12:26:23.053Z,66.35
2022-11-28T12:30:40.491Z,66.22
2022-11-28T12:34:55.009Z,66.01
2022-11-28T12:39:16.588Z,65.46
2022-11-28T12:43:36.391Z,66.07
2022-11-28T12:47:48.816Z,65.71
2022-11-28T12:56:13.349Z,66.28
2022-11-28T13:00:20.075Z,65.09
2022-11-28T13:04:50.942Z,65.82
2022-11-28T13:09:05.353Z,64.88
2022-11-28T13:13:14.090Z,64.94
2022-11-28T13:17:31.837Z,65.95
2022-11-28T13:21:45.389Z,66.28
2022-11-28T13:25:55.108Z,66.00
2022-11-28T13:30:07.501Z,66.04
2022-11-28T13:34:17.428Z,66.04
2022-11-28T13:38:37.276Z,65.73
2022-11-28T13:43:04.412Z,65.57
2022-11-28T13:47:29.049Z,67.35
2022-11-28T13:51:34.478Z,66.44
2022-11-28T13:55:48.410Z,67.73
2022-11-28T13:59:59.134Z,67.21
2022-11-28T14:04:10.582Z,67.16
2022-11-28T14:08:29.505Z,67.89
2022-11-28T14:12:45.623Z,67.46
2022-11-28T14:17:03.394Z,67.33
2022-11-28T14:21:13.770Z,67.02
2022-11-28T14:25:22.015Z,66.72
2022-11-28T14:29:37.318Z,67.60
2022-11-28T14:33:42.612Z,67.28
2022-11-28T14:37:54.226Z,68.02
2022-11-28T14:42:59.070Z,68.33
2022-11-28T14:47:15.654Z,68.48
2022-11-28T14:51:19.567Z,68.16
2022-11-28T14:55:23.778Z,67.60
2022-11-28T14:59:32.074Z,68.19
2022-11-28T15:03:47.227Z,68.13
2022-11-28T15:08:12.225Z,68.98
2022-11-28T15:12:23.106Z,68.26
2022-11-28T15:16:29.661Z,68.68
2022-11-28T15:20:39.466Z,68.85
2022-11-28T15:24:42.701Z,69.34
2022-11-28T15:28:46.124Z,69.42
2022-11-28T15:32:49.687Z,69.51
2022-11-28T15:36:56.356Z,69.69
2022-11-28T15:41:01.411Z,69.30
2022-11-28T15:45:10.124Z,70.16
2022-11-28T15:49:25.391Z,70.29
2022-11-28T15:53:31.241Z,70.35
2022-11-28T15:57:34.766Z,70.31
2022-11-28T16:01:38.588Z,70.99
2022-11-28T16:05:43.939Z,70.98
2022-11-28T16:10:00.445Z,70.59
2022-11-28T16:14:09.957Z,70.82
2022-11-28T16:18:16.723Z,70.88
2022-11-28T16:22:22.573Z,70.73
2022-11-28T16:26:48.328Z,70.85
2022-11-28T16:30:52.639Z,70.94
2022-11-28T16:35:00.804Z,70.78
2022-11-28T16:39:11.320Z,71.21
2022-11-28T16:43:26.220Z,71.17
2022-11-28T16:47:33.372Z,70.93
2022-11-28T16:51:39.724Z,71.43
2022-11-28T16:55:46.932Z,70.93
2022-11-28T16:59:53.101Z,70.77
2022-11-28T17:03:58.562Z,70.87
2022-11-28T17:08:02.840Z,71.02
2022-11-28T17:12:10.029Z,70.70
2022-11-28T17:16:20.341Z,71.02
2022-11-28T17:20:24.456Z,71.14
2022-11-28T17:24:31.553Z,70.95
2022-11-28T17:28:34.865Z,71.57
2022-11-28T17:32:40.048Z,71.80
2022-11-28T17:36:43.839Z,71.71
2022-11-28T17:40:47.431Z,72.45
2022-11-28T17:44:50.565Z,72.47
2022-11-28T17:48:57.925Z,72.53
2022-11-28T17:53:01.501Z,72.75
2022-11-28T17:57:05.164Z,72.78
2022-11-28T18:01:11.584Z,72.98
2022-11-28T18:05:16.879Z,72.62
2022-11-28T18:09:20.398Z,72.69
2022-11-28T18:13:24.586Z,72.97
2022-11-28T18:17:27.739Z,73.08
2022-11-28T18:21:32.859Z,72.43
2022-11-28T18:25:36.470Z,72.42
2022-11-28T18:29:40.160Z,72.57
2022-11-28T18:33:43.662Z,72.38
2022-11-28T18:37:49.074Z,72.60
2022-11-28T18:41:53.548Z,72.43
2022-11-28T18:45:59.736Z,72.78
2022-11-28T18:50:03.108Z,72.57
2022-11-28T18:54:08.207Z,72.75
2022-11-28T18:58:13.563Z,72.52
2022-11-28T19:02:17.273Z,72.75
2022-11-28T19:06:22.285Z,73.20
2022-11-28T19:10:27.060Z,73.43
2022-11-28T19:14:30.586Z,73.67
2022-11-28T19:18:33.967Z,73.32
2022-11-28T19:22:37.485Z,73.54
2022-11-28T19:26:41.950Z,73.47
2022-11-28T19:30:46.197Z,73.13
2022-11-28T19:34:52.889Z,73.60
2022-11-28T19:38:57.886Z,73.11
2022-11-28T19:43:04.749Z,73.34
2022-11-28T19:47:08.267Z,73.44
2022-11-28T19:51:13.974Z,73.38
2022-11-28T19:55:18.870Z,72.89
2022-11-28T19:59:25.387Z,73.06
2022-11-28T20:03:29.255Z,73.29
2022-11-28T20:07:32.608Z,72.88
2022-11-28T20:11:37.100Z,72.57
2022-11-28T20:15:42.280Z,72.69
2022-11-28T20:19:46.101Z,72.54
2022-11-28T20:23:52.186Z,73.06
2022-11-28T20:27:55.542Z,72.78
2022-11-28T20:32:00.552Z,72.78
2022-11-28T20:36:08.134Z,72.77
2022-11-28T20:40:13.086Z,72.81
2022-11-28T20:44:17.768Z,72.81
2022-11-28T20:48:22.834Z,72.69
2022-11-28T20:52:26.872Z,72.92
2022-11-28T20:56:41.789Z,72.92
2022-11-28T21:00:55.408Z,73.29
2022-11-28T21:05:01.017Z,72.79
2022-11-28T21:09:04.827Z,73.51
2022-11-28T21:13:08.300Z,73.22
2022-11-28T21:17:11.808Z,73.61
2022-11-28T21:21:34.094Z,73.50
2022-11-28T21:25:39.863Z,73.60
2022-11-28T21:29:44.132Z,73.72
2022-11-28T21:33:51.802Z,73.52
2022-11-28T21:37:57.305Z,73.62
2022-11-28T21:42:00.758Z,74.03
2022-11-28T21:46:05.489Z,73.76
2022-11-28T21:50:10.050Z,74.22
2022-11-28T21:54:16.090Z,73.88
2022-11-28T21:58:23.734Z,73.53
2022-11-28T22:06:54.611Z,73.67
2022-11-28T22:11:01.326Z,73.53
2022-11-28T22:15:04.886Z,73.61
2022-11-28T22:19:08.460Z,73.59
2022-11-28T22:23:12.185Z,73.47
2022-11-28T22:27:17.221Z,73.16
2022-11-28T22:31:20.901Z,73.47
2022-11-28T22:35:24.975Z,73.08
2022-11-28T22:39:28.541Z,73.70
2022-11-28T22:43:33.068Z,73.71
2022-11-28T22:47:36.660Z,73.17
2022-11-28T22:51:41.177Z,73.87
2022-11-28T22:55:44.700Z,73.19
2022-11-28T22:59:49.603Z,73.41
2022-11-28T23:03:53.451Z,73.90
2022-11-28T23:07:57.053Z,73.64
2022-11-28T23:12:01.920Z,73.54
2022-11-28T23:16:15.793Z,74.00
2022-11-28T23:20:20.800Z,74.50
2022-11-28T23:24:24.711Z,74.56
2022-11-28T23:28:30.066Z,74.52
2022-11-28T23:32:35.056Z,74.29
2022-11-28T23:36:42.416Z,74.03
2022-11-28T23:40:46.224Z,73.58
2022-11-28T23:44:49.983Z,73.59
2022-11-28T23:48:55.099Z,73.48
2022-11-28T23:52:58.168Z,73.63
2022-11-28T23:57:01.734Z,73.56
